Time;durP1;ratioP1;P1;durP2;ratioP2;P2;SDS_P1;SDS_P2;PMS_P1;PMS_P2;Temp;Humidity;BMP_temperature;BMP_pressure;BME280_temperature;BME280_humidity;BME280_pressure;Samples;Min_cycle;Max_cycle;Signal;HPM_P1;HPM_P2
2022/07/18 00:00:21;;;;;;;7.30;2.60;;;;;;;15.07;100.00;102364.25;5265860;28;20474;-69
2022/07/18 00:02:52;;;;;;;4.80;2.00;;;;;;;15.03;100.00;102369.13;5257676;28;20031;-69
2022/07/18 00:05:23;;;;;;;6.90;2.55;;;;;;;14.99;100.00;102367.75;5246589;28;20031;-69
2022/07/18 00:07:53;;;;;;;10.27;2.42;;;;;;;14.93;100.00;102365.69;5246652;28;20029;-69
2022/07/18 00:10:24;;;;;;;7.93;2.50;;;;;;;14.85;100.00;102367.47;5258000;28;20535;-69
2022/07/18 00:12:54;;;;;;;5.07;2.35;;;;;;;14.79;100.00;102366.25;5258917;28;20071;-70
2022/07/18 00:15:25;;;;;;;4.97;2.05;;;;;;;14.71;100.00;102369.75;5258249;28;20026;-69
2022/07/18 00:17:55;;;;;;;9.23;2.95;;;;;;;14.63;100.00;102366.97;5257571;28;20436;-69
2022/07/18 00:20:26;;;;;;;7.95;2.70;;;;;;;14.57;100.00;102359.50;5251008;28;20099;-69
2022/07/18 00:22:56;;;;;;;6.15;2.75;;;;;;;14.48;100.00;102361.25;5244954;28;20107;-69
2022/07/18 00:25:27;;;;;;;11.65;2.80;;;;;;;14.39;100.00;102347.81;5247321;28;20016;-69
2022/07/18 00:27:57;;;;;;;5.30;2.10;;;;;;;14.29;100.00;102347.88;5254347;28;20505;-69
2022/07/18 00:30:28;;;;;;;7.72;2.28;;;;;;;14.18;100.00;102348.97;5249641;28;20389;-69
2022/07/18 00:32:58;;;;;;;8.02;2.80;;;;;;;14.09;100.00;102341.78;5253949;28;20020;-69
2022/07/18 00:35:29;;;;;;;7.03;2.47;;;;;;;14.04;100.00;102340.56;5249807;28;20020;-69
2022/07/18 00:38:01;;;;;;;7.72;2.30;;;;;;;14.02;100.00;102346.09;5252529;28;20029;-69
2022/07/18 00:40:33;;;;;;;6.20;2.17;;;;;;;13.98;100.00;102339.31;5265105;28;20027;-69
2022/07/18 00:43:03;;;;;;;7.07;2.67;;;;;;;13.93;100.00;102347.00;5264553;28;20435;-69
2022/07/18 00:45:34;;;;;;;3.63;2.00;;;;;;;13.87;100.00;102340.38;5252470;28;20020;-69
2022/07/18 00:48:06;;;;;;;8.77;2.88;;;;;;;13.85;100.00;102336.13;5250387;28;20526;-69
2022/07/18 00:50:37;;;;;;;9.00;2.35;;;;;;;13.82;100.00;102333.75;5244625;28;20028;-69
2022/07/18 00:53:10;;;;;;;5.68;2.53;;;;;;;13.77;100.00;102334.19;5257823;28;20024;-69
2022/07/18 00:55:43;;;;;;;5.55;2.45;;;;;;;13.73;100.00;102330.94;5243664;28;20031;-69
2022/07/18 00:58:13;;;;;;;7.38;2.38;;;;;;;13.69;100.00;102324.16;5258080;28;20020;-69
2022/07/18 01:03:33;;;;;;;9.02;2.50;;;;;;;13.65;100.00;102321.91;5235148;28;20428;-69
2022/07/18 01:06:04;;;;;;;3.65;2.15;;;;;;;13.57;100.00;102314.59;5240102;28;20016;-69
2022/07/18 01:08:35;;;;;;;5.43;2.47;;;;;;;13.53;100.00;102315.03;5244750;28;20036;-69
2022/07/18 01:11:06;;;;;;;6.97;2.55;;;;;;;13.49;100.00;102322.56;5244612;28;20028;-69
2022/07/18 01:13:37;;;;;;;7.15;2.20;;;;;;;13.52;100.00;102321.44;5256809;28;20077;-69
2022/07/18 01:16:08;;;;;;;7.43;2.30;;;;;;;13.63;100.00;102324.75;5257610;28;20028;-69
2022/07/18 01:18:44;;;;;;;3.85;2.30;;;;;;;13.68;100.00;102322.47;5247420;28;20064;-69
2022/07/18 01:21:15;;;;;;;5.32;2.20;;;;;;;13.72;100.00;102320.31;5261617;28;20501;-69
2022/07/18 01:23:46;;;;;;;4.07;2.33;;;;;;;13.71;100.00;102322.16;5265631;28;20040;-69
2022/07/18 01:26:17;;;;;;;5.72;2.03;;;;;;;13.69;100.00;102324.16;5257962;28;20497;-69
2022/07/18 01:28:48;;;;;;;6.25;2.47;;;;;;;13.63;100.00;102318.53;5247537;28;20025;-69
2022/07/18 01:31:18;;;;;;;4.40;2.05;;;;;;;13.57;100.00;102314.59;5259494;28;20023;-69
2022/07/18 01:33:49;;;;;;;5.63;2.45;;;;;;;13.51;100.00;102311.66;5249725;28;20025;-69
2022/07/18 01:36:19;;;;;;;9.57;2.70;;;;;;;13.46;100.00;102306.69;5247349;28;20047;-69
2022/07/18 01:38:50;;;;;;;4.82;2.33;;;;;;;13.41;100.00;102304.44;5247518;28;20020;-69
2022/07/18 01:41:21;;;;;;;2.95;2.08;;;;;;;13.38;100.00;102306.59;5261173;28;20024;-69
2022/07/18 01:43:52;;;;;;;19.52;2.97;;;;;;;13.32;100.00;102301.78;5247634;28;20021;-69
2022/07/18 01:46:22;;;;;;;3.55;2.35;;;;;;;13.28;100.00;102295.00;5261977;28;20019;-69
2022/07/18 01:48:53;;;;;;;7.10;2.50;;;;;;;13.26;100.00;102305.09;5257154;28;20423;-69
2022/07/18 01:51:24;;;;;;;6.63;2.40;;;;;;;13.21;100.00;102303.69;5264303;28;20033;-69
2022/07/18 01:54:01;;;;;;;6.40;2.67;;;;;;;13.18;100.00;102306.63;5258415;28;20313;-69
2022/07/18 01:56:31;;;;;;;12.02;2.60;;;;;;;13.15;100.00;102295.28;5262961;28;20077;-69
2022/07/18 01:59:03;;;;;;;6.30;2.70;;;;;;;13.13;100.00;102305.38;5268474;28;20035;-69
2022/07/18 02:01:37;;;;;;;4.95;2.33;;;;;;;13.13;100.00;102305.38;5241360;28;20024;-69
2022/07/18 02:04:08;;;;;;;5.72;2.45;;;;;;;13.13;100.00;102300.84;5238995;28;20025;-69
2022/07/18 02:06:39;;;;;;;6.18;2.63;;;;;;;13.13;100.00;102295.44;5247298;28;20375;-69
2022/07/18 02:09:11;;;;;;;5.85;2.33;;;;;;;13.13;100.00;102303.53;5249224;28;20028;-69
2022/07/18 02:11:42;;;;;;;3.00;2.15;;;;;;;13.14;100.00;102297.13;5268180;28;20024;-69
2022/07/18 02:14:12;;;;;;;4.10;2.55;;;;;;;13.14;100.00;102299.84;5266703;28;20497;-69
2022/07/18 02:16:43;;;;;;;5.80;2.67;;;;;;;13.12;100.00;102298.31;5256688;28;20025;-69
2022/07/18 02:19:14;;;;;;;4.70;2.90;;;;;;;13.07;100.00;102296.03;5252158;28;20024;-69
2022/07/18 02:21:44;;;;;;;7.95;2.90;;;;;;;13.03;100.00;102296.47;5247144;28;20032;-69
2022/07/18 02:24:15;;;;;;;7.35;2.60;;;;;;;12.98;100.00;102296.91;5246155;28;20233;-69
2022/07/18 02:26:45;;;;;;;6.95;3.00;;;;;;;12.91;100.00;102285.06;5260124;28;20028;-69
2022/07/18 02:29:16;;;;;;;8.43;2.67;;;;;;;12.81;100.00;102284.22;5246557;28;20498;-69
2022/07/18 02:31:46;;;;;;;9.18;3.33;;;;;;;12.74;100.00;102283.09;5262196;28;20020;-69
2022/07/18 02:34:17;;;;;;;5.10;2.45;;;;;;;12.68;100.00;102276.44;5267133;28;20034;-69
2022/07/18 02:36:50;;;;;;;6.53;2.50;;;;;;;12.60;100.00;102284.41;5254126;28;20073;-69
2022/07/18 02:39:20;;;;;;;10.05;2.72;;;;;;;12.51;100.00;102279.91;5267208;28;20114;-69
2022/07/18 02:41:51;;;;;;;3.85;2.20;;;;;;;12.46;100.00;102280.34;5267594;28;20099;-69
2022/07/18 02:44:22;;;;;;;5.68;2.42;;;;;;;12.41;100.00;102279.91;5254690;28;20024;-69
2022/07/18 02:46:52;;;;;;;8.75;2.40;;;;;;;12.37;100.00;102282.03;5247724;28;20055;-69
2022/07/18 02:52:09;;;;;;;7.53;2.60;;;;;;;12.29;100.00;102264.91;5255322;28;20032;-69
2022/07/18 02:54:40;;;;;;;6.10;2.35;;;;;;;12.23;100.00;102258.25;5266814;28;20024;-69
2022/07/18 02:57:10;;;;;;;6.25;2.30;;;;;;;12.21;100.00;102268.31;5261754;28;20032;-69
2022/07/18 02:59:41;;;;;;;4.97;2.63;;;;;;;12.22;100.00;102261.94;5249188;28;20024;-69
2022/07/18 03:02:11;;;;;;;3.60;2.00;;;;;;;12.24;100.00;102267.16;5245960;28;20417;-69
2022/07/18 03:04:42;;;;;;;5.25;2.65;;;;;;;12.26;100.00;102273.28;5237373;28;20024;-69
2022/07/18 03:07:12;;;;;;;5.40;2.63;;;;;;;12.22;100.00;102263.78;5254511;28;20028;-69
2022/07/18 03:09:43;;;;;;;8.60;2.42;;;;;;;12.16;100.00;102262.50;5245945;28;20028;-69
2022/07/18 03:12:13;;;;;;;6.35;2.63;;;;;;;12.12;100.00;102266.47;5246259;28;20020;-69
2022/07/18 03:14:44;;;;;;;9.98;3.30;;;;;;;12.08;100.00;102260.50;5258350;28;20496;-69
2022/07/18 03:17:15;;;;;;;5.90;2.47;;;;;;;12.04;100.00;102264.47;5245698;28;20056;-69
2022/07/18 03:19:46;;;;;;;4.75;2.75;;;;;;;12.02;100.00;102261.09;5245599;28;20020;-69
2022/07/18 03:22:16;;;;;;;8.38;2.45;;;;;;;12.02;100.00;102257.56;5255236;28;20046;-69
2022/07/18 03:24:47;;;;;;;5.72;2.80;;;;;;;12.03;100.00;102267.31;5245130;28;20417;-69
2022/07/18 03:27:17;;;;;;;7.90;2.97;;;;;;;12.02;100.00;102255.72;5249703;28;20473;-69
2022/07/18 03:29:47;;;;;;;5.88;2.63;;;;;;;12.01;100.00;102251.31;5254753;28;20024;-69
2022/07/18 03:32:18;;;;;;;4.82;2.70;;;;;;;11.99;100.00;102255.97;5264804;28;20081;-69
2022/07/18 03:34:49;;;;;;;4.82;2.63;;;;;;;11.97;100.00;102249.91;5252748;28;20050;-69
2022/07/18 03:37:19;;;;;;;8.13;3.00;;;;;;;11.96;100.00;102250.91;5252212;28;20024;-69
2022/07/18 03:39:50;;;;;;;8.55;2.78;;;;;;;11.92;100.00;102242.25;5251460;28;20028;-68
2022/07/18 03:42:20;;;;;;;12.77;2.80;;;;;;;11.90;100.00;102243.41;5257795;28;20138;-69
2022/07/18 03:44:51;;;;;;;10.27;2.88;;;;;;;11.89;100.00;102255.13;5260301;28;20024;-69
2022/07/18 03:47:21;;;;;;;8.60;2.80;;;;;;;11.87;100.00;102244.53;5257201;28;20031;-69
2022/07/18 03:49:52;;;;;;;10.00;3.40;;;;;;;11.86;100.00;102252.72;5247460;28;20119;-69
2022/07/18 03:52:22;;;;;;;5.70;2.85;;;;;;;11.85;100.00;102246.50;5265882;28;20374;-69
2022/07/18 03:54:53;;;;;;;7.50;3.00;;;;;;;11.86;100.00;102255.44;5252024;28;20027;-69
2022/07/18 03:57:23;;;;;;;7.68;2.60;;;;;;;11.83;100.00;102247.63;5248273;28;20028;-69
2022/07/18 03:59:54;;;;;;;10.77;3.35;;;;;;;11.83;100.00;102250.31;5259510;28;20021;-69
2022/07/18 04:02:24;;;;;;;9.32;3.42;;;;;;;11.83;100.00;102255.69;5244476;28;20393;-69
2022/07/18 04:04:55;;;;;;;10.38;3.10;;;;;;;11.83;100.00;102253.84;5230919;28;20055;-69
2022/07/18 04:07:25;;;;;;;6.68;2.95;;;;;;;11.84;100.00;102257.38;5244942;28;20036;-69
2022/07/18 04:09:56;;;;;;;6.32;2.58;;;;;;;11.88;100.00;102253.44;5244954;28;20501;-69
2022/07/18 04:12:26;;;;;;;6.20;2.80;;;;;;;11.90;100.00;102246.94;5260888;28;20027;-69
2022/07/18 04:14:57;;;;;;;10.20;2.70;;;;;;;11.93;100.00;102238.56;5264748;28;20035;-69
2022/07/18 04:17:28;;;;;;;11.63;2.80;;;;;;;11.95;100.00;102234.88;5252156;28;20607;-69
2022/07/18 04:19:58;;;;;;;15.00;3.28;;;;;;;11.96;100.00;102229.38;5254888;28;20028;-69
2022/07/18 04:22:29;;;;;;;6.38;2.42;;;;;;;11.98;100.00;102235.47;5257776;28;20043;-69
2022/07/18 04:24:59;;;;;;;4.03;2.70;;;;;;;12.01;100.00;102229.81;5264975;28;20484;-69
2022/07/18 04:27:30;;;;;;;6.32;2.90;;;;;;;12.04;100.00;102232.19;5259451;28;20116;-68
2022/07/18 04:30:01;;;;;;;9.30;3.20;;;;;;;12.08;100.00;102233.63;5257856;28;20016;-69
2022/07/18 04:32:32;;;;;;;12.60;3.08;;;;;;;12.13;100.00;102230.50;5252285;28;20505;-69
2022/07/18 04:35:03;;;;;;;8.02;3.83;;;;;;;12.19;100.00;102222.69;5250251;28;20044;-69
2022/07/18 04:37:35;;;;;;;7.63;3.00;;;;;;;12.26;100.00;102219.44;5244956;28;20032;-69
2022/07/18 04:40:07;;;;;;;12.80;3.83;;;;;;;12.34;100.00;102211.50;5244392;28;20359;-69
2022/07/18 04:42:38;;;;;;;8.77;3.20;;;;;;;12.42;100.00;102214.31;5255246;28;20028;-69
2022/07/18 04:45:09;;;;;;;9.73;2.88;;;;;;;12.51;100.00;102216.16;5260378;28;20028;-69
2022/07/18 04:47:40;;;;;;;9.00;3.08;;;;;;;12.60;100.00;102215.28;5245413;28;20074;-69
2022/07/18 04:50:10;;;;;;;7.25;3.33;;;;;;;12.69;100.00;102210.84;5249886;28;20024;-69
2022/07/18 04:52:42;;;;;;;13.10;3.65;;;;;;;12.80;100.00;102207.97;5252519;28;20407;-69
2022/07/18 04:55:15;;;;;;;10.18;3.08;;;;;;;12.92;100.00;102211.31;5248162;28;20024;-69
2022/07/18 04:57:45;;;;;;;6.47;3.33;;;;;;;13.03;100.00;102208.44;5262334;28;20374;-69
2022/07/18 05:00:19;;;;;;;7.80;2.80;;;;;;;13.15;100.00;102204.56;5248555;28;20069;-69
2022/07/18 05:02:51;;;;;;;9.07;3.65;;;;;;;13.29;100.00;102205.06;5258075;28;20031;-69
2022/07/18 05:05:23;;;;;;;8.20;3.38;;;;;;;13.38;100.00;102210.38;5238520;28;20031;-69
2022/07/18 05:07:55;;;;;;;9.43;3.22;;;;;;;13.51;100.00;102206.50;5267474;28;20469;-69
2022/07/18 05:10:25;;;;;;;9.50;3.08;;;;;;;13.65;100.00;102208.63;5269284;28;20374;-69
2022/07/18 05:12:56;;;;;;;10.32;3.22;;;;;;;13.78;100.00;102209.13;5262378;28;20033;-69
2022/07/18 05:15:27;;;;;;;6.50;3.08;;;;;;;13.94;100.00;102217.34;5261028;28;20557;-69
2022/07/18 05:17:57;;;;;;;9.65;3.30;;;;;;;14.06;100.00;102212.59;5255955;28;20012;-69
2022/07/18 05:20:28;;;;;;;8.55;4.10;;;;;;;14.18;100.00;102211.31;5255249;28;20020;-69
2022/07/18 05:22:59;;;;;;;8.57;3.78;;;;;;;14.32;100.00;102217.16;5256741;28;20024;-69
2022/07/18 05:25:29;;;;;;;13.05;3.90;;;;;;;14.43;100.00;102219.59;5261017;28;20024;-69
2022/07/18 05:28:00;;;;;;;6.95;3.17;;;;;;;14.56;100.00;102216.50;5247900;28;20432;-69
2022/07/18 05:30:30;;;;;;;10.18;4.38;;;;;;;14.72;100.00;102219.31;5265167;28;20028;-69
2022/07/18 05:33:01;;;;;;;11.07;3.15;;;;;;;14.90;100.00;102225.47;5257986;28;20056;-69
2022/07/18 05:35:31;;;;;;;10.52;3.53;;;;;;;15.10;100.00;102227.94;5260965;28;20025;-69
2022/07/18 05:38:02;;;;;;;10.18;3.72;;;;;;;15.28;100.00;102229.53;5260257;28;20031;-69
2022/07/18 05:40:33;;;;;;;8.68;3.80;;;;;;;15.48;100.00;102223.84;5268267;28;20035;-69
2022/07/18 05:43:03;;;;;;;10.02;3.35;;;;;;;15.65;100.00;102230.16;5268716;28;20031;-69
2022/07/18 05:45:34;;;;;;;7.15;3.47;;;;;;;15.86;100.00;102230.53;5233861;28;20120;-70
2022/07/18 05:48:05;;;;;;;9.40;3.00;;;;;;;16.03;100.00;102229.56;5260844;28;20058;-69
2022/07/18 05:50:36;;;;;;;11.15;3.28;;;;;;;16.17;100.00;102236.16;5247490;28;20033;-69
2022/07/18 05:53:06;;;;;;;9.82;3.33;;;;;;;16.29;100.00;102228.53;5249717;28;20031;-69
2022/07/18 05:55:37;;;;;;;10.35;3.92;;;;;;;16.42;100.00;102233.44;5264939;28;20060;-70
2022/07/18 05:58:08;;;;;;;9.50;3.38;;;;;;;16.64;100.00;102232.72;5250707;28;20027;-71
2022/07/18 06:00:38;;;;;;;7.45;3.30;;;;;;;16.90;100.00;102228.94;5268681;28;20401;-70
2022/07/18 06:03:10;;;;;;;6.15;2.92;;;;;;;17.21;100.00;102243.41;5243522;28;20035;-71
2022/07/18 06:05:41;;;;;;;16.15;3.15;;;;;;;17.81;100.00;102244.63;5239389;28;20027;-70
2022/07/18 06:08:11;;;;;;;11.02;3.20;;;;;;;18.76;100.00;102245.00;5247241;28;20028;-70
2022/07/18 06:10:42;;;;;;;11.70;4.35;;;;;;;19.80;100.00;102253.06;5261034;28;20387;-70
2022/07/18 06:13:12;;;;;;;9.13;3.35;;;;;;;20.64;100.00;102239.59;5256278;28;20122;-70
2022/07/18 06:15:43;;;;;;;8.50;3.33;;;;;;;21.43;100.00;102250.94;5264333;28;20021;-70
2022/07/18 06:18:13;;;;;;;8.13;2.95;;;;;;;22.22;100.00;102250.28;5246763;28;20024;-70
2022/07/18 06:20:44;;;;;;;11.35;4.00;;;;;;;22.84;100.00;102260.97;5252288;28;20035;-70
2022/07/18 06:23:14;;;;;;;10.95;2.95;;;;;;;23.10;100.00;102251.91;5258066;28;20064;-70
2022/07/18 06:25:45;;;;;;;11.60;3.38;;;;;;;23.49;100.00;102256.34;5267304;28;20027;-70
2022/07/18 06:28:15;;;;;;;6.90;2.90;;;;;;;23.92;100.00;102251.09;5255141;28;20074;-70
2022/07/18 06:30:46;;;;;;;4.82;2.70;;;;;;;24.16;100.00;102257.66;5260655;28;20068;-71
2022/07/18 06:33:16;;;;;;;8.95;3.03;;;;;;;24.33;97.97;102254.38;5246979;28;20025;-71
2022/07/18 06:35:47;;;;;;;7.38;2.60;;;;;;;24.54;98.65;102251.25;5253796;28;20024;-71
2022/07/18 06:38:18;;;;;;;5.97;2.40;;;;;;;24.80;93.52;102248.25;5267434;28;20106;-71
2022/07/18 06:40:48;;;;;;;9.25;3.17;;;;;;;24.67;93.62;102237.41;5258496;28;20496;-71
2022/07/18 06:43:19;;;;;;;8.27;3.20;;;;;;;24.49;93.65;102246.44;5246859;28;20036;-71
2022/07/18 06:45:52;;;;;;;9.70;3.15;;;;;;;24.57;91.46;102234.34;5246379;28;20025;-71
2022/07/18 06:48:22;;;;;;;6.47;2.85;;;;;;;25.10;88.28;102224.72;5250153;28;20028;-71
2022/07/18 06:50:53;;;;;;;8.93;2.70;;;;;;;25.28;87.52;102233.78;5267686;28;20583;-71
2022/07/18 06:53:23;;;;;;;9.02;3.05;;;;;;;25.24;87.18;102229.81;5253306;28;20030;-71
2022/07/18 06:55:54;;;;;;;10.63;2.63;;;;;;;25.21;85.33;102230.28;5261632;28;20397;-71
2022/07/18 06:58:25;;;;;;;8.27;2.63;;;;;;;25.51;89.09;102232.22;5252808;28;20020;-71
2022/07/18 07:00:55;;;;;;;6.55;2.42;;;;;;;25.90;89.80;102230.81;5266843;28;20100;-71
2022/07/18 07:03:26;;;;;;;9.57;2.55;;;;;;;26.32;81.41;102237.13;5237758;28;20449;-71
2022/07/18 07:05:56;;;;;;;5.00;2.20;;;;;;;26.46;79.61;102240.53;5240148;28;20504;-71
2022/07/18 07:08:27;;;;;;;6.53;2.28;;;;;;;26.76;85.91;102232.13;5255696;28;20108;-71
2022/07/18 07:10:57;;;;;;;9.63;2.30;;;;;;;26.99;76.18;102233.16;5264042;28;20048;-71
2022/07/18 07:13:28;;;;;;;7.15;2.65;;;;;;;27.13;73.19;102233.75;5245854;28;20028;-71
2022/07/18 07:15:58;;;;;;;6.10;2.17;;;;;;;27.12;71.33;102227.41;5244342;28;20405;-71
2022/07/18 07:18:29;;;;;;;7.82;2.17;;;;;;;27.24;71.17;102225.44;5257413;28;20663;-71
2022/07/18 07:20:59;;;;;;;5.20;2.30;;;;;;;27.19;68.75;102225.34;5258584;28;20032;-71
2022/07/18 07:23:30;;;;;;;5.35;2.20;;;;;;;27.30;71.72;102229.97;5249768;28;20021;-72
2022/07/18 07:26:00;;;;;;;5.32;2.53;;;;;;;27.08;66.64;102224.31;5265876;28;20054;-72
2022/07/18 07:28:31;;;;;;;9.18;2.05;;;;;;;27.26;66.54;102214.19;5251632;28;20062;-72
2022/07/18 07:31:02;;;;;;;7.63;2.17;;;;;;;27.49;66.59;102219.59;5245909;28;20032;-71
2022/07/18 07:33:32;;;;;;;5.72;2.30;;;;;;;27.42;68.15;102215.34;5247881;28;20054;-72
2022/07/18 07:36:04;;;;;;;8.38;2.53;;;;;;;27.90;65.39;102211.28;5256398;28;20470;-72
2022/07/18 07:38:35;;;;;;;13.85;2.20;;;;;;;28.07;64.62;102214.91;5258832;28;20489;-72
2022/07/18 07:41:06;;;;;;;8.82;2.28;;;;;;;28.55;65.83;102207.94;5256582;28;20019;-72
2022/07/18 07:43:38;;;;;;;5.75;2.05;;;;;;;28.92;59.67;102213.72;5266539;28;20340;-72
2022/07/18 07:46:10;;;;;;;9.48;2.67;;;;;;;29.10;60.50;102216.16;5253050;28;20044;-72
2022/07/18 07:48:43;;;;;;;5.10;2.00;;;;;;;29.02;60.30;102215.75;5251915;28;20036;-72
2022/07/18 07:51:14;;;;;;;3.92;1.88;;;;;;;29.41;59.54;102208.22;5252659;28;20024;-72
2022/07/18 07:53:45;;;;;;;4.07;1.85;;;;;;;29.28;59.71;102203.94;5266197;28;20535;-72
2022/07/18 07:56:18;;;;;;;4.93;1.70;;;;;;;28.90;56.90;102210.34;5251665;28;20013;-72
2022/07/18 07:58:49;;;;;;;7.38;1.95;;;;;;;29.00;58.75;102199.44;5255044;28;20481;-72
2022/07/18 08:01:19;;;;;;;6.70;2.30;;;;;;;29.44;58.25;102201.34;5258958;28;20030;-72
2022/07/18 08:03:50;;;;;;;11.93;2.58;;;;;;;29.87;58.20;102197.63;5233403;28;20390;-72
2022/07/18 08:06:20;;;;;;;4.78;2.03;;;;;;;30.33;57.91;102192.50;5256545;28;20124;-72
2022/07/18 08:08:51;;;;;;;5.50;2.10;;;;;;;30.56;56.18;102191.25;5258014;28;20028;-72
2022/07/18 08:11:21;;;;;;;4.45;2.10;;;;;;;30.04;54.05;102189.22;5259199;28;20570;-72
2022/07/18 08:13:53;;;;;;;5.43;2.05;;;;;;;30.02;54.40;102188.63;5259263;28;20097;-72
2022/07/18 08:16:24;;;;;;;4.28;1.90;;;;;;;30.12;55.24;102186.81;5265074;28;20028;-72
2022/07/18 08:18:54;;;;;;;7.10;2.10;;;;;;;30.50;53.96;102186.78;5265377;28;20032;-72
2022/07/18 08:21:25;;;;;;;6.30;2.03;;;;;;;30.11;53.53;102176.81;5248283;28;20507;-72
2022/07/18 08:23:55;;;;;;;15.32;3.17;;;;;;;30.14;52.75;102178.25;5248476;28;20035;-72
2022/07/18 08:26:26;;;;;;;6.30;1.83;;;;;;;30.24;52.85;102181.09;5265292;28;20027;-72
2022/07/18 08:28:56;;;;;;;5.55;2.05;;;;;;;30.69;54.26;102177.75;5247321;28;20104;-72
2022/07/18 08:31:27;;;;;;;7.68;2.40;;;;;;;31.04;51.29;102175.44;5255874;28;20027;-72
2022/07/18 08:33:57;;;;;;;6.65;2.38;;;;;;;31.55;53.51;102183.91;5259705;28;20081;-72
2022/07/18 08:36:28;;;;;;;9.68;2.05;;;;;;;31.68;50.69;102180.59;5244380;28;20433;-72
2022/07/18 08:38:59;;;;;;;6.88;2.05;;;;;;;31.66;50.48;102180.84;5244751;28;20043;-72
2022/07/18 08:41:30;;;;;;;5.93;1.90;;;;;;;31.80;50.98;102183.91;5258983;28;20103;-72
2022/07/18 08:44:01;;;;;;;3.60;1.92;;;;;;;31.58;51.09;102181.41;5257254;28;20452;-72
2022/07/18 08:46:33;;;;;;;6.88;1.85;;;;;;;31.43;52.76;102181.41;5258113;28;20024;-72
2022/07/18 08:49:05;;;;;;;7.70;1.92;;;;;;;31.45;51.52;102180.00;5244570;28;20119;-72
2022/07/18 08:51:36;;;;;;;7.28;1.88;;;;;;;31.71;48.92;102178.09;5262193;28;20059;-72
2022/07/18 08:54:06;;;;;;;6.20;2.15;;;;;;;31.83;49.43;102174.22;5253540;28;20060;-72
2022/07/18 08:56:37;;;;;;;4.43;2.47;;;;;;;32.34;47.32;102177.81;5249511;28;20231;-72
2022/07/18 08:59:08;;;;;;;10.35;2.47;;;;;;;32.37;48.39;102173.66;5264285;28;20031;-72
2022/07/18 09:01:38;;;;;;;4.15;1.83;;;;;;;32.36;48.75;102172.00;5259428;28;20103;-72
2022/07/18 09:06:58;;;;;;;7.95;2.33;;;;;;;31.68;49.50;102181.44;5244632;28;20448;-72
2022/07/18 09:09:30;;;;;;;3.47;1.90;;;;;;;31.85;49.42;102178.41;5249089;28;20039;-72
2022/07/18 09:12:18;;;;;;;6.22;2.10;;;;;;;31.61;47.90;102175.31;5265832;28;20016;-72
2022/07/18 09:14:48;;;;;;;7.93;2.60;;;;;;;31.85;49.16;102177.56;5239363;28;20031;-72
2022/07/18 09:17:37;;;;;;;10.77;2.47;;;;;;;32.00;46.76;102180.34;5249410;28;20033;-72
2022/07/18 09:20:14;;;;;;;4.55;1.88;;;;;;;32.05;47.28;102176.72;5249405;28;20028;-72
2022/07/18 09:22:47;;;;;;;5.50;2.20;;;;;;;32.35;47.44;102179.47;5252946;28;20367;-72
2022/07/18 09:25:21;;;;;;;3.77;1.80;;;;;;;32.58;45.73;102177.19;5244223;28;20044;-72
2022/07/18 09:27:53;;;;;;;5.78;1.80;;;;;;;32.86;44.92;102167.38;5256606;28;20054;-72
2022/07/18 09:30:28;;;;;;;5.95;2.10;;;;;;;32.96;44.89;102178.47;5246905;28;20032;-72
2022/07/18 09:33:16;;;;;;;8.25;1.67;;;;;;;33.17;43.35;102174.47;5254969;28;20600;-72
2022/07/18 09:35:49;;;;;;;2.28;1.50;;;;;;;33.67;43.31;102171.66;5250118;28;20024;-72
2022/07/18 09:38:23;;;;;;;8.18;2.05;;;;;;;33.69;41.56;102175.00;5265373;28;20024;-72
2022/07/18 09:40:54;;;;;;;6.93;1.83;;;;;;;33.38;43.53;102172.38;5258901;28;20078;-72
2022/07/18 09:43:26;;;;;;;8.00;2.10;;;;;;;33.57;41.65;102177.28;5261026;28;20020;-72
2022/07/18 09:45:57;;;;;;;11.18;1.92;;;;;;;33.78;43.04;102175.19;5258198;28;20024;-72
2022/07/18 09:48:27;;;;;;;4.80;1.58;;;;;;;33.53;42.11;102173.44;5250315;28;20033;-72
2022/07/18 09:51:01;;;;;;;4.57;1.80;;;;;;;33.43;42.35;102177.13;5247936;28;20060;-72
2022/07/18 09:53:35;;;;;;;4.38;1.83;;;;;;;33.41;42.40;102176.56;5260943;28;20061;-72
2022/07/18 09:56:09;;;;;;;4.18;1.45;;;;;;;33.48;39.40;102177.06;5256410;28;20024;-72
2022/07/18 09:58:49;;;;;;;6.78;1.55;;;;;;;33.60;40.16;102174.78;5268268;28;20024;-70
2022/07/18 10:01:20;;;;;;;4.80;2.13;;;;;;;34.07;39.06;102176.06;5264176;28;20103;-70
2022/07/18 10:03:51;;;;;;;4.88;1.98;;;;;;;34.27;38.36;102167.50;5235423;28;20119;-69
2022/07/18 10:06:23;;;;;;;3.40;1.88;;;;;;;33.98;39.46;102169.47;5245403;28;20033;-69
2022/07/18 10:08:55;;;;;;;4.75;1.88;;;;;;;33.70;39.93;102176.66;5247836;28;20029;-70
2022/07/18 10:11:27;;;;;;;5.55;2.20;;;;;;;34.32;38.30;102174.16;5234094;28;20768;-70
2022/07/18 10:13:57;;;;;;;5.97;2.22;;;;;;;34.27;38.67;102172.25;5260277;28;20489;-70
2022/07/18 10:16:28;;;;;;;8.18;2.33;;;;;;;33.94;39.71;102173.97;5246684;28;20051;-69
2022/07/18 10:18:59;;;;;;;5.78;2.05;;;;;;;34.25;37.05;102166.97;5249782;28;20023;-70
2022/07/18 10:21:31;;;;;;;7.20;1.70;;;;;;;33.92;38.84;102167.81;5249724;28;20036;-70
2022/07/18 10:24:02;;;;;;;7.80;2.08;;;;;;;33.56;40.57;102157.00;5243873;28;20016;-69
2022/07/18 10:26:32;;;;;;;6.53;1.92;;;;;;;33.60;38.73;102160.88;5258513;28;20046;-70
2022/07/18 10:29:03;;;;;;;4.10;2.20;;;;;;;34.15;36.61;102157.91;5248608;28;20024;-70
2022/07/18 10:31:37;;;;;;;5.30;1.73;;;;;;;33.96;36.91;102160.59;5247049;28;20035;-70
2022/07/18 10:34:08;;;;;;;4.10;2.03;;;;;;;33.87;37.05;102160.34;5233075;28;20021;-70
2022/07/18 10:37:09;;;;;;;3.53;1.70;;;;;;;33.82;36.47;102149.25;5247250;28;20440;-70
2022/07/18 10:39:44;;;;;;;5.90;2.08;;;;;;;33.64;37.32;102148.03;5246756;28;20016;-70
2022/07/18 10:42:18;;;;;;;4.90;2.05;;;;;;;33.69;37.00;102156.34;5233900;28;20055;-69
2022/07/18 10:44:49;;;;;;;3.10;1.80;;;;;;;33.45;37.07;102144.28;5247845;28;20024;-70
2022/07/18 10:47:22;;;;;;;3.53;1.88;;;;;;;33.51;37.13;102143.13;5258101;28;20103;-70
2022/07/18 10:49:53;;;;;;;4.75;1.60;;;;;;;33.57;36.37;102147.53;5245592;28;20031;-70
2022/07/18 10:52:24;;;;;;;3.42;1.70;;;;;;;34.05;34.37;102141.31;5246186;28;20486;-69
2022/07/18 10:55:33;;;;;;;8.20;1.80;;;;;;;34.14;36.83;102133.94;5245661;28;20123;-70
2022/07/18 10:58:06;;;;;;;4.60;1.80;;;;;;;34.14;36.28;102147.88;5247536;28;20066;-70
2022/07/18 11:00:38;;;;;;;6.97;2.20;;;;;;;33.94;35.77;102143.34;5267784;28;20405;-70
2022/07/18 11:03:10;;;;;;;2.75;1.70;;;;;;;34.09;36.26;102140.44;5241152;28;20017;-70
2022/07/18 11:05:42;;;;;;;4.80;2.00;;;;;;;34.12;35.13;102139.00;5238725;28;20032;-69
2022/07/18 11:08:13;;;;;;;5.82;1.90;;;;;;;34.17;35.68;102139.75;5254218;28;20474;-70
2022/07/18 11:10:45;;;;;;;4.00;1.98;;;;;;;33.93;34.20;102139.69;5252267;28;20059;-70
2022/07/18 11:13:35;;;;;;;4.35;1.83;;;;;;;33.99;35.93;102137.75;5245812;28;20032;-70
2022/07/18 11:16:21;;;;;;;5.38;1.90;;;;;;;34.12;36.91;102127.84;5258839;28;20362;-70
2022/07/18 11:18:52;;;;;;;4.72;1.83;;;;;;;34.49;37.20;102127.16;5261638;28;20029;-70
2022/07/18 11:21:38;;;;;;;6.38;2.03;;;;;;;34.78;35.26;102132.66;5249534;28;20490;-70
2022/07/18 11:24:12;;;;;;;5.10;2.17;;;;;;;35.04;34.33;102130.38;5243073;28;20024;-70
2022/07/18 11:26:46;;;;;;;5.20;2.08;;;;;;;35.01;33.71;102125.41;5246047;28;20066;-70
2022/07/18 11:29:20;;;;;;;3.60;1.95;;;;;;;35.05;35.28;102125.66;5232371;28;20031;-70
2022/07/18 11:32:09;;;;;;;5.35;2.00;;;;;;;34.86;35.30;102114.44;5245706;28;20024;-70
2022/07/18 11:34:49;;;;;;;5.57;2.17;;;;;;;35.13;34.97;102111.84;5256749;28;20081;-70
2022/07/18 11:37:20;;;;;;;5.28;1.92;;;;;;;35.32;33.60;102119.38;5259491;28;20111;-70
2022/07/18 11:39:51;;;;;;;5.38;2.38;;;;;;;35.30;32.01;102111.31;5245532;28;20027;-70
2022/07/18 11:42:49;;;;;;;3.92;1.90;;;;;;;34.89;34.11;102106.28;5245600;28;20028;-70
2022/07/18 11:45:22;;;;;;;8.30;2.00;;;;;;;34.73;33.50;102110.44;5250944;28;20478;-70
2022/07/18 11:47:53;;;;;;;6.57;2.17;;;;;;;34.72;31.64;102101.25;5253117;28;20025;-70